Terminal Aerodrome Forecast
Issued by NWS Cleveland, OH

Home | Current Version | Previous Version | Graphics & Text | Print | Product List | Glossary On
Versions: 1 2 3 4 5 6 7 8 9 10 11 12 13 14 15 16 17 18 19 20 21 22 23
000
FTUS41 KCLE 020500
TAFCAK
TAF
KCAK 020537Z 0206/0306 05004KT P6SM SCT120
     FM020800 10003KT 5SM BR BKN030
     FM021100 13003KT 2SM BR SCT010
     FM021400 12003KT P6SM VCSH SCT040 BKN060
     FM021800 01004KT P6SM VCTS BKN040CB=

USA.gov is the U.S. government's official web portal to all federal, state and local government web resources and services.